sensor_id;sensor_type;location;lat;lon;timestamp;P1;durP1;ratioP1;P2;durP2;ratioP2
19675;SDS011;39539;52.202;9.876;2023-09-18T00:01:35;5.75;;;5.35;;
19675;SDS011;39539;52.202;9.876;2023-09-18T00:04:01;7.07;;;6.43;;
19675;SDS011;39539;52.202;9.876;2023-09-18T00:06:26;6.35;;;5.90;;
19675;SDS011;39539;52.202;9.876;2023-09-18T00:08:52;6.10;;;5.70;;
19675;SDS011;39539;52.202;9.876;2023-09-18T00:11:18;7.00;;;6.50;;
19675;SDS011;39539;52.202;9.876;2023-09-18T00:13:44;6.45;;;5.95;;
19675;SDS011;39539;52.202;9.876;2023-09-18T00:16:09;5.88;;;5.47;;
19675;SDS011;39539;52.202;9.876;2023-09-18T00:18:34;6.50;;;6.00;;
19675;SDS011;39539;52.202;9.876;2023-09-18T00:21:00;6.72;;;6.22;;
19675;SDS011;39539;52.202;9.876;2023-09-18T00:23:25;7.03;;;6.53;;
19675;SDS011;39539;52.202;9.876;2023-09-18T00:25:50;7.55;;;6.85;;
19675;SDS011;39539;52.202;9.876;2023-09-18T00:28:16;6.28;;;5.78;;
19675;SDS011;39539;52.202;9.876;2023-09-18T00:30:48;6.40;;;5.90;;
19675;SDS011;39539;52.202;9.876;2023-09-18T00:33:15;6.18;;;5.57;;
19675;SDS011;39539;52.202;9.876;2023-09-18T00:35:40;6.05;;;5.60;;
19675;SDS011;39539;52.202;9.876;2023-09-18T00:38:05;7.07;;;6.40;;
19675;SDS011;39539;52.202;9.876;2023-09-18T00:40:32;7.22;;;6.63;;
19675;SDS011;39539;52.202;9.876;2023-09-18T00:42:57;6.18;;;5.70;;
19675;SDS011;39539;52.202;9.876;2023-09-18T00:45:23;6.63;;;6.13;;
19675;SDS011;39539;52.202;9.876;2023-09-18T00:47:48;6.45;;;5.95;;
19675;SDS011;39539;52.202;9.876;2023-09-18T00:50:14;6.70;;;6.25;;
19675;SDS011;39539;52.202;9.876;2023-09-18T00:52:40;7.07;;;6.47;;
19675;SDS011;39539;52.202;9.876;2023-09-18T00:55:06;7.57;;;6.88;;
19675;SDS011;39539;52.202;9.876;2023-09-18T00:57:33;7.90;;;7.38;;
19675;SDS011;39539;52.202;9.876;2023-09-18T00:59:59;8.82;;;8.23;;
19675;SDS011;39539;52.202;9.876;2023-09-18T01:02:24;9.02;;;8.30;;
19675;SDS011;39539;52.202;9.876;2023-09-18T01:04:50;8.85;;;8.25;;
19675;SDS011;39539;52.202;9.876;2023-09-18T01:07:15;8.70;;;8.02;;
19675;SDS011;39539;52.202;9.876;2023-09-18T01:09:40;8.43;;;7.80;;
19675;SDS011;39539;52.202;9.876;2023-09-18T01:12:11;9.85;;;9.05;;
19675;SDS011;39539;52.202;9.876;2023-09-18T01:14:55;9.38;;;8.60;;
19675;SDS011;39539;52.202;9.876;2023-09-18T01:17:24;8.77;;;8.18;;
19675;SDS011;39539;52.202;9.876;2023-09-18T01:19:51;8.90;;;8.20;;
19675;SDS011;39539;52.202;9.876;2023-09-18T01:22:17;8.55;;;8.02;;
19675;SDS011;39539;52.202;9.876;2023-09-18T01:24:44;8.88;;;8.10;;
19675;SDS011;39539;52.202;9.876;2023-09-18T01:27:13;8.80;;;8.10;;
19675;SDS011;39539;52.202;9.876;2023-09-18T01:29:42;8.40;;;7.63;;
19675;SDS011;39539;52.202;9.876;2023-09-18T01:32:07;7.85;;;7.35;;
19675;SDS011;39539;52.202;9.876;2023-09-18T01:34:34;8.98;;;8.23;;
19675;SDS011;39539;52.202;9.876;2023-09-18T01:37:02;8.95;;;8.15;;
19675;SDS011;39539;52.202;9.876;2023-09-18T01:39:30;7.38;;;6.90;;
19675;SDS011;39539;52.202;9.876;2023-09-18T01:42:01;8.60;;;7.57;;
19675;SDS011;39539;52.202;9.876;2023-09-18T01:44:29;8.10;;;7.47;;
19675;SDS011;39539;52.202;9.876;2023-09-18T01:46:54;9.00;;;8.20;;
19675;SDS011;39539;52.202;9.876;2023-09-18T01:49:26;9.02;;;8.32;;
19675;SDS011;39539;52.202;9.876;2023-09-18T01:51:53;8.98;;;8.18;;
19675;SDS011;39539;52.202;9.876;2023-09-18T01:54:18;9.05;;;8.27;;
19675;SDS011;39539;52.202;9.876;2023-09-18T01:56:44;8.30;;;7.53;;
19675;SDS011;39539;52.202;9.876;2023-09-18T01:59:09;8.43;;;7.82;;
19675;SDS011;39539;52.202;9.876;2023-09-18T02:01:34;7.60;;;7.10;;
19675;SDS011;39539;52.202;9.876;2023-09-18T02:04:00;8.02;;;7.32;;
19675;SDS011;39539;52.202;9.876;2023-09-18T02:06:25;8.10;;;7.50;;
19675;SDS011;39539;52.202;9.876;2023-09-18T02:08:50;7.38;;;6.88;;
19675;SDS011;39539;52.202;9.876;2023-09-18T02:11:16;6.95;;;6.45;;
19675;SDS011;39539;52.202;9.876;2023-09-18T02:13:41;7.20;;;6.70;;
19675;SDS011;39539;52.202;9.876;2023-09-18T02:16:07;7.15;;;6.55;;
19675;SDS011;39539;52.202;9.876;2023-09-18T02:18:32;7.95;;;7.35;;
19675;SDS011;39539;52.202;9.876;2023-09-18T02:20:58;6.35;;;5.95;;
19675;SDS011;39539;52.202;9.876;2023-09-18T02:23:23;7.53;;;6.93;;
19675;SDS011;39539;52.202;9.876;2023-09-18T02:25:55;6.80;;;6.30;;
19675;SDS011;39539;52.202;9.876;2023-09-18T02:28:23;6.72;;;6.32;;
19675;SDS011;39539;52.202;9.876;2023-09-18T02:30:49;6.85;;;6.35;;
19675;SDS011;39539;52.202;9.876;2023-09-18T02:33:15;7.80;;;7.20;;
19675;SDS011;39539;52.202;9.876;2023-09-18T02:35:40;7.35;;;6.78;;
19675;SDS011;39539;52.202;9.876;2023-09-18T02:38:06;7.05;;;6.65;;
19675;SDS011;39539;52.202;9.876;2023-09-18T02:40:31;7.80;;;7.25;;
19675;SDS011;39539;52.202;9.876;2023-09-18T02:42:57;8.23;;;7.63;;
19675;SDS011;39539;52.202;9.876;2023-09-18T02:45:22;8.90;;;8.13;;
19675;SDS011;39539;52.202;9.876;2023-09-18T02:47:49;9.05;;;8.20;;
19675;SDS011;39539;52.202;9.876;2023-09-18T02:50:14;9.05;;;8.32;;
19675;SDS011;39539;52.202;9.876;2023-09-18T02:52:40;8.23;;;7.72;;
19675;SDS011;39539;52.202;9.876;2023-09-18T02:55:05;8.25;;;7.53;;
19675;SDS011;39539;52.202;9.876;2023-09-18T02:57:30;8.20;;;7.60;;
19675;SDS011;39539;52.202;9.876;2023-09-18T02:59:57;7.80;;;7.20;;
19675;SDS011;39539;52.202;9.876;2023-09-18T03:02:23;7.20;;;6.60;;
19675;SDS011;39539;52.202;9.876;2023-09-18T03:04:49;7.32;;;6.82;;
19675;SDS011;39539;52.202;9.876;2023-09-18T03:07:14;8.07;;;7.45;;
19675;SDS011;39539;52.202;9.876;2023-09-18T03:09:41;7.97;;;7.38;;
19675;SDS011;39539;52.202;9.876;2023-09-18T03:12:06;9.75;;;8.85;;
19675;SDS011;39539;52.202;9.876;2023-09-18T03:14:32;8.07;;;7.43;;
19675;SDS011;39539;52.202;9.876;2023-09-18T03:16:57;7.72;;;7.22;;
19675;SDS011;39539;52.202;9.876;2023-09-18T03:19:22;8.55;;;7.95;;
19675;SDS011;39539;52.202;9.876;2023-09-18T03:21:49;8.55;;;7.82;;
19675;SDS011;39539;52.202;9.876;2023-09-18T03:24:16;9.10;;;8.30;;
19675;SDS011;39539;52.202;9.876;2023-09-18T03:26:41;7.97;;;7.43;;
19675;SDS011;39539;52.202;9.876;2023-09-18T03:29:08;8.35;;;7.75;;
19675;SDS011;39539;52.202;9.876;2023-09-18T03:31:33;7.95;;;7.35;;
19675;SDS011;39539;52.202;9.876;2023-09-18T03:33:58;8.20;;;7.50;;
19675;SDS011;39539;52.202;9.876;2023-09-18T03:36:23;7.40;;;7.00;;
19675;SDS011;39539;52.202;9.876;2023-09-18T03:38:49;8.20;;;7.47;;
19675;SDS011;39539;52.202;9.876;2023-09-18T03:41:14;7.90;;;7.38;;
19675;SDS011;39539;52.202;9.876;2023-09-18T03:43:39;8.30;;;7.70;;
19675;SDS011;39539;52.202;9.876;2023-09-18T03:46:05;7.93;;;7.47;;
19675;SDS011;39539;52.202;9.876;2023-09-18T03:48:31;8.20;;;7.60;;
19675;SDS011;39539;52.202;9.876;2023-09-18T03:51:02;8.40;;;7.80;;
19675;SDS011;39539;52.202;9.876;2023-09-18T03:53:29;8.40;;;7.78;;
19675;SDS011;39539;52.202;9.876;2023-09-18T03:55:54;8.35;;;7.68;;
19675;SDS011;39539;52.202;9.876;2023-09-18T03:58:20;7.03;;;6.63;;
19675;SDS011;39539;52.202;9.876;2023-09-18T04:00:45;6.78;;;6.25;;
19675;SDS011;39539;52.202;9.876;2023-09-18T04:03:11;7.22;;;6.65;;
19675;SDS011;39539;52.202;9.876;2023-09-18T04:05:36;7.10;;;6.60;;
19675;SDS011;39539;52.202;9.876;2023-09-18T04:08:01;6.68;;;6.18;;
19675;SDS011;39539;52.202;9.876;2023-09-18T04:10:27;7.38;;;6.78;;
19675;SDS011;39539;52.202;9.876;2023-09-18T04:12:52;8.30;;;7.68;;
19675;SDS011;39539;52.202;9.876;2023-09-18T04:15:18;8.10;;;7.28;;
19675;SDS011;39539;52.202;9.876;2023-09-18T04:17:43;7.97;;;7.38;;
19675;SDS011;39539;52.202;9.876;2023-09-18T04:20:10;7.88;;;7.32;;
19675;SDS011;39539;52.202;9.876;2023-09-18T04:22:36;7.70;;;7.10;;
19675;SDS011;39539;52.202;9.876;2023-09-18T04:25:01;7.40;;;6.90;;
19675;SDS011;39539;52.202;9.876;2023-09-18T04:27:30;7.78;;;7.28;;
19675;SDS011;39539;52.202;9.876;2023-09-18T04:29:55;8.57;;;7.80;;
19675;SDS011;39539;52.202;9.876;2023-09-18T04:32:21;8.18;;;7.60;;
19675;SDS011;39539;52.202;9.876;2023-09-18T04:34:46;7.53;;;7.03;;
19675;SDS011;39539;52.202;9.876;2023-09-18T04:37:12;6.75;;;6.25;;
19675;SDS011;39539;52.202;9.876;2023-09-18T04:39:38;6.00;;;5.60;;
19675;SDS011;39539;52.202;9.876;2023-09-18T04:42:04;5.72;;;5.32;;
19675;SDS011;39539;52.202;9.876;2023-09-18T04:44:30;5.45;;;5.15;;
19675;SDS011;39539;52.202;9.876;2023-09-18T04:46:56;5.68;;;5.22;;
19675;SDS011;39539;52.202;9.876;2023-09-18T04:49:22;5.63;;;5.32;;
19675;SDS011;39539;52.202;9.876;2023-09-18T04:51:48;5.85;;;5.35;;
19675;SDS011;39539;52.202;9.876;2023-09-18T04:54:15;4.95;;;4.65;;
19675;SDS011;39539;52.202;9.876;2023-09-18T04:56:42;5.22;;;4.93;;
19675;SDS011;39539;52.202;9.876;2023-09-18T04:59:07;5.55;;;5.15;;
19675;SDS011;39539;52.202;9.876;2023-09-18T05:01:32;5.38;;;5.07;;
19675;SDS011;39539;52.202;9.876;2023-09-18T05:03:58;5.53;;;5.15;;
19675;SDS011;39539;52.202;9.876;2023-09-18T05:06:23;5.43;;;5.03;;
19675;SDS011;39539;52.202;9.876;2023-09-18T05:08:50;4.97;;;4.68;;
19675;SDS011;39539;52.202;9.876;2023-09-18T05:11:18;8.52;;;5.30;;
19675;SDS011;39539;52.202;9.876;2023-09-18T05:13:43;4.78;;;4.50;;
19675;SDS011;39539;52.202;9.876;2023-09-18T05:16:09;10.73;;;5.82;;
19675;SDS011;39539;52.202;9.876;2023-09-18T05:18:34;6.78;;;6.18;;
19675;SDS011;39539;52.202;9.876;2023-09-18T05:20:59;6.47;;;5.97;;
19675;SDS011;39539;52.202;9.876;2023-09-18T05:23:26;7.28;;;6.68;;
19675;SDS011;39539;52.202;9.876;2023-09-18T05:25:51;6.97;;;6.38;;
19675;SDS011;39539;52.202;9.876;2023-09-18T05:28:16;6.82;;;6.13;;
19675;SDS011;39539;52.202;9.876;2023-09-18T05:30:42;6.85;;;6.45;;
19675;SDS011;39539;52.202;9.876;2023-09-18T05:33:07;6.72;;;6.22;;
19675;SDS011;39539;52.202;9.876;2023-09-18T05:35:43;6.10;;;5.68;;
19675;SDS011;39539;52.202;9.876;2023-09-18T05:38:13;6.38;;;5.78;;
19675;SDS011;39539;52.202;9.876;2023-09-18T05:40:39;5.82;;;5.40;;
19675;SDS011;39539;52.202;9.876;2023-09-18T05:43:06;6.15;;;5.70;;
19675;SDS011;39539;52.202;9.876;2023-09-18T05:45:32;5.63;;;5.22;;
19675;SDS011;39539;52.202;9.876;2023-09-18T05:47:59;4.95;;;4.65;;
19675;SDS011;39539;52.202;9.876;2023-09-18T05:50:31;5.03;;;4.63;;
19675;SDS011;39539;52.202;9.876;2023-09-18T05:52:57;4.93;;;4.55;;
19675;SDS011;39539;52.202;9.876;2023-09-18T05:55:28;5.68;;;5.18;;
19675;SDS011;39539;52.202;9.876;2023-09-18T05:57:54;5.03;;;4.63;;
19675;SDS011;39539;52.202;9.876;2023-09-18T06:00:20;4.78;;;4.57;;
19675;SDS011;39539;52.202;9.876;2023-09-18T06:02:46;4.97;;;4.60;;
19675;SDS011;39539;52.202;9.876;2023-09-18T06:05:12;5.30;;;5.00;;
19675;SDS011;39539;52.202;9.876;2023-09-18T06:07:37;5.13;;;4.72;;
19675;SDS011;39539;52.202;9.876;2023-09-18T06:10:03;4.35;;;4.13;;
19675;SDS011;39539;52.202;9.876;2023-09-18T06:12:29;5.38;;;4.97;;
19675;SDS011;39539;52.202;9.876;2023-09-18T06:14:55;5.15;;;4.75;;
19675;SDS011;39539;52.202;9.876;2023-09-18T06:17:20;4.80;;;4.47;;
19675;SDS011;39539;52.202;9.876;2023-09-18T06:19:46;4.75;;;4.38;;
19675;SDS011;39539;52.202;9.876;2023-09-18T06:22:12;5.10;;;4.78;;
19675;SDS011;39539;52.202;9.876;2023-09-18T06:24:39;5.25;;;4.78;;
19675;SDS011;39539;52.202;9.876;2023-09-18T06:27:04;4.78;;;4.47;;
19675;SDS011;39539;52.202;9.876;2023-09-18T06:29:32;4.90;;;4.60;;
19675;SDS011;39539;52.202;9.876;2023-09-18T06:32:01;4.85;;;4.45;;
19675;SDS011;39539;52.202;9.876;2023-09-18T06:34:26;4.78;;;4.47;;
19675;SDS011;39539;52.202;9.876;2023-09-18T06:36:53;4.88;;;4.57;;
19675;SDS011;39539;52.202;9.876;2023-09-18T06:39:19;4.95;;;4.50;;
19675;SDS011;39539;52.202;9.876;2023-09-18T06:41:45;4.88;;;4.55;;
19675;SDS011;39539;52.202;9.876;2023-09-18T06:44:10;5.18;;;4.78;;
19675;SDS011;39539;52.202;9.876;2023-09-18T06:46:36;5.03;;;4.63;;
19675;SDS011;39539;52.202;9.876;2023-09-18T06:49:03;4.85;;;4.53;;
19675;SDS011;39539;52.202;9.876;2023-09-18T06:51:29;4.47;;;4.20;;
19675;SDS011;39539;52.202;9.876;2023-09-18T06:53:54;4.45;;;4.05;;
19675;SDS011;39539;52.202;9.876;2023-09-18T06:56:22;5.10;;;4.65;;
19675;SDS011;39539;52.202;9.876;2023-09-18T06:58:48;5.00;;;4.60;;
19675;SDS011;39539;52.202;9.876;2023-09-18T07:01:16;4.70;;;4.30;;
19675;SDS011;39539;52.202;9.876;2023-09-18T07:03:45;5.95;;;4.55;;
19675;SDS011;39539;52.202;9.876;2023-09-18T07:06:12;4.93;;;4.53;;
19675;SDS011;39539;52.202;9.876;2023-09-18T07:08:41;4.75;;;4.38;;
19675;SDS011;39539;52.202;9.876;2023-09-18T07:11:10;4.22;;;3.92;;
19675;SDS011;39539;52.202;9.876;2023-09-18T07:13:37;4.30;;;4.00;;
19675;SDS011;39539;52.202;9.876;2023-09-18T07:16:02;4.88;;;4.50;;
19675;SDS011;39539;52.202;9.876;2023-09-18T07:18:28;4.68;;;4.38;;
19675;SDS011;39539;52.202;9.876;2023-09-18T07:20:53;4.53;;;4.22;;
19675;SDS011;39539;52.202;9.876;2023-09-18T07:23:19;4.68;;;4.28;;
19675;SDS011;39539;52.202;9.876;2023-09-18T07:25:47;6.03;;;4.30;;
19675;SDS011;39539;52.202;9.876;2023-09-18T07:28:12;5.00;;;4.45;;
19675;SDS011;39539;52.202;9.876;2023-09-18T07:30:42;4.45;;;4.05;;
19675;SDS011;39539;52.202;9.876;2023-09-18T07:33:12;4.65;;;4.10;;
19675;SDS011;39539;52.202;9.876;2023-09-18T07:35:41;4.55;;;4.20;;
19675;SDS011;39539;52.202;9.876;2023-09-18T07:38:07;5.10;;;4.25;;
19675;SDS011;39539;52.202;9.876;2023-09-18T07:40:33;5.60;;;4.63;;
19675;SDS011;39539;52.202;9.876;2023-09-18T07:42:58;4.72;;;4.32;;
19675;SDS011;39539;52.202;9.876;2023-09-18T07:45:24;5.03;;;4.30;;
19675;SDS011;39539;52.202;9.876;2023-09-18T07:47:50;4.47;;;4.07;;
19675;SDS011;39539;52.202;9.876;2023-09-18T07:50:16;5.10;;;4.60;;
19675;SDS011;39539;52.202;9.876;2023-09-18T07:52:43;5.00;;;4.50;;
19675;SDS011;39539;52.202;9.876;2023-09-18T07:55:08;4.57;;;4.28;;
19675;SDS011;39539;52.202;9.876;2023-09-18T07:57:34;4.85;;;4.00;;
19675;SDS011;39539;52.202;9.876;2023-09-18T08:00:01;4.55;;;4.15;;
19675;SDS011;39539;52.202;9.876;2023-09-18T08:02:32;5.25;;;4.50;;
19675;SDS011;39539;52.202;9.876;2023-09-18T08:04:57;4.90;;;4.50;;
19675;SDS011;39539;52.202;9.876;2023-09-18T08:07:23;4.75;;;4.25;;
19675;SDS011;39539;52.202;9.876;2023-09-18T08:09:48;4.15;;;3.83;;
19675;SDS011;39539;52.202;9.876;2023-09-18T08:12:14;6.18;;;4.25;;
19675;SDS011;39539;52.202;9.876;2023-09-18T08:14:39;4.43;;;4.03;;
19675;SDS011;39539;52.202;9.876;2023-09-18T08:17:05;5.18;;;4.15;;
19675;SDS011;39539;52.202;9.876;2023-09-18T08:19:32;4.30;;;3.63;;
19675;SDS011;39539;52.202;9.876;2023-09-18T08:21:58;5.13;;;4.00;;
19675;SDS011;39539;52.202;9.876;2023-09-18T08:24:27;8.13;;;3.92;;
19675;SDS011;39539;52.202;9.876;2023-09-18T08:26:52;5.15;;;3.63;;
19675;SDS011;39539;52.202;9.876;2023-09-18T08:29:19;6.10;;;4.18;;
19675;SDS011;39539;52.202;9.876;2023-09-18T08:31:45;5.03;;;4.03;;
19675;SDS011;39539;52.202;9.876;2023-09-18T08:34:11;5.97;;;3.70;;
19675;SDS011;39539;52.202;9.876;2023-09-18T08:36:37;6.38;;;3.70;;
19675;SDS011;39539;52.202;9.876;2023-09-18T08:39:03;5.32;;;3.80;;
19675;SDS011;39539;52.202;9.876;2023-09-18T08:41:32;4.18;;;3.78;;
19675;SDS011;39539;52.202;9.876;2023-09-18T08:44:03;5.40;;;3.53;;
19675;SDS011;39539;52.202;9.876;2023-09-18T08:46:29;4.75;;;3.60;;
19675;SDS011;39539;52.202;9.876;2023-09-18T08:48:55;5.75;;;3.70;;
19675;SDS011;39539;52.202;9.876;2023-09-18T08:51:25;6.10;;;3.15;;
19675;SDS011;39539;52.202;9.876;2023-09-18T08:53:53;7.53;;;3.45;;
19675;SDS011;39539;52.202;9.876;2023-09-18T08:56:19;6.70;;;3.70;;
19675;SDS011;39539;52.202;9.876;2023-09-18T08:58:46;3.92;;;3.03;;
19675;SDS011;39539;52.202;9.876;2023-09-18T09:01:12;4.38;;;3.08;;
19675;SDS011;39539;52.202;9.876;2023-09-18T09:03:41;4.40;;;3.65;;
19675;SDS011;39539;52.202;9.876;2023-09-18T09:06:08;6.20;;;3.65;;
19675;SDS011;39539;52.202;9.876;2023-09-18T09:08:36;6.10;;;3.70;;
19675;SDS011;39539;52.202;9.876;2023-09-18T09:11:02;5.10;;;3.08;;
19675;SDS011;39539;52.202;9.876;2023-09-18T09:13:28;6.05;;;3.45;;
19675;SDS011;39539;52.202;9.876;2023-09-18T09:15:54;4.35;;;3.15;;
19675;SDS011;39539;52.202;9.876;2023-09-18T09:18:23;4.63;;;3.20;;
19675;SDS011;39539;52.202;9.876;2023-09-18T09:20:54;5.43;;;3.30;;
19675;SDS011;39539;52.202;9.876;2023-09-18T09:23:29;5.25;;;2.92;;
19675;SDS011;39539;52.202;9.876;2023-09-18T09:26:14;5.35;;;3.28;;
19675;SDS011;39539;52.202;9.876;2023-09-18T09:28:42;5.93;;;3.33;;
19675;SDS011;39539;52.202;9.876;2023-09-18T09:31:08;9.38;;;3.47;;
19675;SDS011;39539;52.202;9.876;2023-09-18T09:33:37;8.18;;;3.30;;
19675;SDS011;39539;52.202;9.876;2023-09-18T09:36:06;6.75;;;3.28;;
19675;SDS011;39539;52.202;9.876;2023-09-18T09:38:32;8.73;;;4.13;;
19675;SDS011;39539;52.202;9.876;2023-09-18T09:41:02;6.65;;;3.10;;
19675;SDS011;39539;52.202;9.876;2023-09-18T09:43:29;4.75;;;3.17;;
19675;SDS011;39539;52.202;9.876;2023-09-18T09:46:01;6.85;;;2.80;;
19675;SDS011;39539;52.202;9.876;2023-09-18T09:48:28;5.57;;;2.72;;
19675;SDS011;39539;52.202;9.876;2023-09-18T09:51:00;5.45;;;3.10;;
19675;SDS011;39539;52.202;9.876;2023-09-18T09:53:41;5.80;;;3.10;;
19675;SDS011;39539;52.202;9.876;2023-09-18T09:56:09;7.47;;;3.00;;
19675;SDS011;39539;52.202;9.876;2023-09-18T09:58:34;4.00;;;2.70;;
19675;SDS011;39539;52.202;9.876;2023-09-18T10:01:02;4.60;;;2.65;;
19675;SDS011;39539;52.202;9.876;2023-09-18T10:03:36;5.90;;;3.22;;
19675;SDS011;39539;52.202;9.876;2023-09-18T10:06:03;6.40;;;2.95;;
19675;SDS011;39539;52.202;9.876;2023-09-18T10:08:30;6.63;;;2.85;;
19675;SDS011;39539;52.202;9.876;2023-09-18T10:11:05;5.35;;;2.67;;
19675;SDS011;39539;52.202;9.876;2023-09-18T10:13:53;5.13;;;3.03;;
19675;SDS011;39539;52.202;9.876;2023-09-18T10:16:25;4.47;;;2.72;;
19675;SDS011;39539;52.202;9.876;2023-09-18T10:21:47;4.55;;;2.50;;
19675;SDS011;39539;52.202;9.876;2023-09-18T10:24:20;3.78;;;2.80;;
19675;SDS011;39539;52.202;9.876;2023-09-18T10:26:56;9.52;;;2.80;;
19675;SDS011;39539;52.202;9.876;2023-09-18T10:29:23;5.40;;;2.30;;
19675;SDS011;39539;52.202;9.876;2023-09-18T10:31:51;4.45;;;2.55;;
19675;SDS011;39539;52.202;9.876;2023-09-18T10:34:19;4.50;;;2.78;;
19675;SDS011;39539;52.202;9.876;2023-09-18T10:36:48;8.02;;;2.70;;
19675;SDS011;39539;52.202;9.876;2023-09-18T10:39:19;4.85;;;2.55;;
19675;SDS011;39539;52.202;9.876;2023-09-18T10:41:51;6.15;;;2.97;;
19675;SDS011;39539;52.202;9.876;2023-09-18T10:44:19;9.27;;;3.25;;
19675;SDS011;39539;52.202;9.876;2023-09-18T10:46:45;5.40;;;2.42;;
19675;SDS011;39539;52.202;9.876;2023-09-18T10:49:12;3.90;;;2.60;;
19675;SDS011;39539;52.202;9.876;2023-09-18T10:51:38;3.67;;;2.45;;
19675;SDS011;39539;52.202;9.876;2023-09-18T10:54:07;5.10;;;2.30;;
19675;SDS011;39539;52.202;9.876;2023-09-18T10:56:34;3.92;;;2.05;;
19675;SDS011;39539;52.202;9.876;2023-09-18T10:59:00;4.20;;;2.40;;
19675;SDS011;39539;52.202;9.876;2023-09-18T11:01:27;5.22;;;2.45;;
19675;SDS011;39539;52.202;9.876;2023-09-18T11:03:58;6.35;;;2.58;;
19675;SDS011;39539;52.202;9.876;2023-09-18T11:06:26;5.68;;;2.53;;
19675;SDS011;39539;52.202;9.876;2023-09-18T11:08:59;3.83;;;2.58;;
19675;SDS011;39539;52.202;9.876;2023-09-18T11:11:30;5.93;;;2.78;;
19675;SDS011;39539;52.202;9.876;2023-09-18T11:13:58;5.40;;;2.17;;
19675;SDS011;39539;52.202;9.876;2023-09-18T11:18:54;7.38;;;2.72;;
19675;SDS011;39539;52.202;9.876;2023-09-18T11:21:32;4.97;;;3.00;;
19675;SDS011;39539;52.202;9.876;2023-09-18T11:24:06;4.63;;;2.60;;
19675;SDS011;39539;52.202;9.876;2023-09-18T11:26:37;5.22;;;2.53;;
19675;SDS011;39539;52.202;9.876;2023-09-18T11:29:07;4.75;;;2.42;;
19675;SDS011;39539;52.202;9.876;2023-09-18T11:34:20;4.28;;;2.50;;
19675;SDS011;39539;52.202;9.876;2023-09-18T11:36:48;3.88;;;2.10;;
19675;SDS011;39539;52.202;9.876;2023-09-18T11:42:10;3.00;;;1.90;;
19675;SDS011;39539;52.202;9.876;2023-09-18T11:44:38;4.88;;;2.28;;
19675;SDS011;39539;52.202;9.876;2023-09-18T11:47:11;3.90;;;2.22;;
19675;SDS011;39539;52.202;9.876;2023-09-18T11:49:59;6.65;;;2.63;;
19675;SDS011;39539;52.202;9.876;2023-09-18T11:52:25;3.40;;;2.03;;
19675;SDS011;39539;52.202;9.876;2023-09-18T11:54:53;3.15;;;2.20;;
19675;SDS011;39539;52.202;9.876;2023-09-18T11:57:20;5.70;;;3.58;;
19675;SDS011;39539;52.202;9.876;2023-09-18T11:59:46;5.20;;;2.20;;
19675;SDS011;39539;52.202;9.876;2023-09-18T12:02:28;4.10;;;2.25;;
19675;SDS011;39539;52.202;9.876;2023-09-18T12:05:21;3.83;;;2.08;;
19675;SDS011;39539;52.202;9.876;2023-09-18T12:07:46;4.88;;;2.20;;
19675;SDS011;39539;52.202;9.876;2023-09-18T12:10:14;4.50;;;2.20;;
19675;SDS011;39539;52.202;9.876;2023-09-18T12:12:41;3.00;;;1.65;;
19675;SDS011;39539;52.202;9.876;2023-09-18T12:15:07;3.70;;;2.03;;
19675;SDS011;39539;52.202;9.876;2023-09-18T12:17:36;5.47;;;2.10;;
19675;SDS011;39539;52.202;9.876;2023-09-18T12:20:01;3.05;;;1.85;;
19675;SDS011;39539;52.202;9.876;2023-09-18T12:22:29;2.80;;;1.58;;
19675;SDS011;39539;52.202;9.876;2023-09-18T12:25:09;4.75;;;2.10;;
19675;SDS011;39539;52.202;9.876;2023-09-18T12:27:43;4.53;;;2.50;;
19675;SDS011;39539;52.202;9.876;2023-09-18T12:30:10;6.00;;;3.05;;
19675;SDS011;39539;52.202;9.876;2023-09-18T12:32:36;3.28;;;2.20;;
19675;SDS011;39539;52.202;9.876;2023-09-18T12:35:05;4.72;;;2.08;;
19675;SDS011;39539;52.202;9.876;2023-09-18T12:37:32;4.57;;;1.88;;
19675;SDS011;39539;52.202;9.876;2023-09-18T12:39:59;3.47;;;1.85;;
19675;SDS011;39539;52.202;9.876;2023-09-18T12:42:39;5.40;;;2.30;;
19675;SDS011;39539;52.202;9.876;2023-09-18T12:45:08;2.55;;;1.80;;
19675;SDS011;39539;52.202;9.876;2023-09-18T12:47:35;4.63;;;2.33;;
19675;SDS011;39539;52.202;9.876;2023-09-18T12:50:02;4.57;;;1.92;;
19675;SDS011;39539;52.202;9.876;2023-09-18T12:52:29;4.20;;;2.33;;
19675;SDS011;39539;52.202;9.876;2023-09-18T12:54:54;3.97;;;1.98;;
19675;SDS011;39539;52.202;9.876;2023-09-18T12:57:21;3.33;;;1.95;;
19675;SDS011;39539;52.202;9.876;2023-09-18T12:59:46;5.65;;;2.30;;
19675;SDS011;39539;52.202;9.876;2023-09-18T13:02:16;2.50;;;1.92;;
19675;SDS011;39539;52.202;9.876;2023-09-18T13:04:54;3.38;;;1.95;;
19675;SDS011;39539;52.202;9.876;2023-09-18T13:07:20;3.55;;;2.20;;
19675;SDS011;39539;52.202;9.876;2023-09-18T13:10:00;4.13;;;1.52;;
19675;SDS011;39539;52.202;9.876;2023-09-18T13:12:39;3.50;;;1.70;;
19675;SDS011;39539;52.202;9.876;2023-09-18T13:15:08;5.38;;;3.75;;
19675;SDS011;39539;52.202;9.876;2023-09-18T13:17:45;2.83;;;2.03;;
19675;SDS011;39539;52.202;9.876;2023-09-18T13:20:18;3.15;;;1.75;;
19675;SDS011;39539;52.202;9.876;2023-09-18T13:22:50;3.03;;;1.90;;
19675;SDS011;39539;52.202;9.876;2023-09-18T13:25:23;2.55;;;1.88;;
19675;SDS011;39539;52.202;9.876;2023-09-18T13:27:54;4.35;;;1.73;;
19675;SDS011;39539;52.202;9.876;2023-09-18T13:30:20;3.92;;;2.10;;
19675;SDS011;39539;52.202;9.876;2023-09-18T13:32:47;2.70;;;2.13;;
19675;SDS011;39539;52.202;9.876;2023-09-18T13:35:33;3.83;;;2.00;;
19675;SDS011;39539;52.202;9.876;2023-09-18T13:38:09;4.43;;;2.00;;
19675;SDS011;39539;52.202;9.876;2023-09-18T13:40:39;3.17;;;1.92;;
19675;SDS011;39539;52.202;9.876;2023-09-18T13:43:09;2.83;;;1.50;;
19675;SDS011;39539;52.202;9.876;2023-09-18T13:45:36;5.05;;;1.95;;
19675;SDS011;39539;52.202;9.876;2023-09-18T13:48:02;2.20;;;1.60;;
19675;SDS011;39539;52.202;9.876;2023-09-18T13:50:28;6.38;;;2.00;;
19675;SDS011;39539;52.202;9.876;2023-09-18T13:52:59;3.70;;;1.80;;
19675;SDS011;39539;52.202;9.876;2023-09-18T13:55:25;4.65;;;1.90;;
19675;SDS011;39539;52.202;9.876;2023-09-18T13:57:51;3.97;;;1.75;;
19675;SDS011;39539;52.202;9.876;2023-09-18T14:00:16;3.10;;;2.15;;
19675;SDS011;39539;52.202;9.876;2023-09-18T14:02:42;3.42;;;1.90;;
19675;SDS011;39539;52.202;9.876;2023-09-18T14:05:09;2.78;;;1.70;;
19675;SDS011;39539;52.202;9.876;2023-09-18T14:07:36;5.32;;;1.90;;
19675;SDS011;39539;52.202;9.876;2023-09-18T14:10:07;3.78;;;2.03;;
19675;SDS011;39539;52.202;9.876;2023-09-18T14:12:35;4.78;;;1.80;;
19675;SDS011;39539;52.202;9.876;2023-09-18T14:15:07;3.42;;;1.75;;
19675;SDS011;39539;52.202;9.876;2023-09-18T14:17:37;3.05;;;1.83;;
19675;SDS011;39539;52.202;9.876;2023-09-18T14:20:03;1.83;;;1.60;;
19675;SDS011;39539;52.202;9.876;2023-09-18T14:22:36;2.45;;;1.58;;
19675;SDS011;39539;52.202;9.876;2023-09-18T14:25:02;2.85;;;1.40;;
19675;SDS011;39539;52.202;9.876;2023-09-18T14:27:35;3.83;;;2.00;;
19675;SDS011;39539;52.202;9.876;2023-09-18T14:30:01;2.83;;;1.90;;
19675;SDS011;39539;52.202;9.876;2023-09-18T14:32:32;2.38;;;1.58;;
19675;SDS011;39539;52.202;9.876;2023-09-18T14:35:01;3.13;;;1.50;;
19675;SDS011;39539;52.202;9.876;2023-09-18T14:37:28;2.90;;;1.40;;
19675;SDS011;39539;52.202;9.876;2023-09-18T14:39:54;2.70;;;1.35;;
19675;SDS011;39539;52.202;9.876;2023-09-18T14:42:19;3.22;;;1.42;;
19675;SDS011;39539;52.202;9.876;2023-09-18T14:44:45;2.97;;;1.80;;
19675;SDS011;39539;52.202;9.876;2023-09-18T14:47:12;4.32;;;1.60;;
19675;SDS011;39539;52.202;9.876;2023-09-18T14:49:38;3.05;;;1.70;;
19675;SDS011;39539;52.202;9.876;2023-09-18T14:52:04;1.75;;;1.65;;
19675;SDS011;39539;52.202;9.876;2023-09-18T14:54:32;1.98;;;1.67;;
19675;SDS011;39539;52.202;9.876;2023-09-18T14:56:59;5.68;;;1.90;;
19675;SDS011;39539;52.202;9.876;2023-09-18T14:59:26;4.03;;;1.60;;
19675;SDS011;39539;52.202;9.876;2023-09-18T15:01:52;3.00;;;1.75;;